Time;durP1;ratioP1;P1;durP2;ratioP2;P2;SDS_P1;SDS_P2;PMS_P1;PMS_P2;Temp;Humidity;BMP_temperature;BMP_pressure;BME280_temperature;BME280_humidity;BME280_pressure;Samples;Min_cycle;Max_cycle;Signal;HPM_P1;HPM_P2
2022/03/16 00:00:30;;;;;;;15.13;11.13;;;5.90;99.90;;;;;;2064703;28;20474;-68
2022/03/16 00:01:32;;;;;;;16.48;12.23;;;5.90;99.90;;;;;;2065862;28;20505;-68
2022/03/16 00:02:32;;;;;;;18.30;13.30;;;5.80;99.90;;;;;;2063710;28;20037;-68
2022/03/16 00:03:33;;;;;;;16.42;13.07;;;5.80;99.90;;;;;;2062445;28;20097;-68
2022/03/16 00:04:34;;;;;;;16.08;11.63;;;5.80;99.90;;;;;;2064743;28;20033;-68
2022/03/16 00:05:35;;;;;;;19.30;12.65;;;5.80;99.90;;;;;;2064005;28;20053;-68
2022/03/16 00:06:36;;;;;;;17.73;12.50;;;5.80;99.90;;;;;;2066942;28;20101;-68
2022/03/16 00:07:36;;;;;;;15.95;11.90;;;5.80;99.90;;;;;;2066668;28;20417;-68
2022/03/16 00:08:37;;;;;;;15.63;11.70;;;5.80;99.90;;;;;;2065111;28;20109;-68
2022/03/16 00:09:38;;;;;;;15.10;11.25;;;5.80;99.90;;;;;;2064820;28;20034;-68
2022/03/16 00:10:38;;;;;;;14.68;10.98;;;5.80;99.90;;;;;;2062340;28;20026;-68
2022/03/16 00:11:39;;;;;;;15.05;11.77;;;5.80;99.90;;;;;;2063276;28;20118;-68
2022/03/16 00:12:41;;;;;;;12.73;10.90;;;5.80;99.90;;;;;;2062130;28;20109;-68
2022/03/16 00:13:43;;;;;;;16.33;12.40;;;5.70;99.90;;;;;;2064288;28;20133;-68
2022/03/16 00:14:43;;;;;;;16.95;12.88;;;5.70;99.90;;;;;;2066769;28;20063;-68
2022/03/16 00:15:44;;;;;;;18.17;12.95;;;5.70;99.90;;;;;;2065818;28;20031;-68
2022/03/16 00:16:44;;;;;;;20.40;13.00;;;5.70;99.90;;;;;;2063479;28;20026;-68
2022/03/16 00:17:45;;;;;;;12.98;10.73;;;5.70;99.90;;;;;;2063504;28;20061;-68
2022/03/16 00:18:45;;;;;;;13.32;10.43;;;5.70;99.90;;;;;;2062163;28;20073;-68
2022/03/16 00:19:46;;;;;;;14.70;11.63;;;5.70;99.90;;;;;;2060956;28;20030;-68
2022/03/16 00:20:48;;;;;;;16.35;11.52;;;5.70;99.90;;;;;;2058401;28;20389;-68
2022/03/16 00:21:48;;;;;;;16.02;12.20;;;5.70;99.90;;;;;;2063631;28;20032;-68
2022/03/16 00:22:49;;;;;;;15.90;11.57;;;5.70;99.90;;;;;;2063891;28;20033;-68
2022/03/16 00:23:49;;;;;;;12.75;10.93;;;5.70;99.90;;;;;;2062931;28;20026;-68
2022/03/16 00:24:50;;;;;;;19.90;13.32;;;5.60;99.90;;;;;;2066182;28;20359;-68
2022/03/16 00:25:51;;;;;;;17.10;12.38;;;5.60;99.90;;;;;;2062559;28;20042;-68
2022/03/16 00:26:51;;;;;;;16.60;12.10;;;5.60;99.90;;;;;;2064258;28;20073;-68
2022/03/16 00:27:52;;;;;;;17.00;12.30;;;5.60;99.90;;;;;;2062490;28;20031;-68
2022/03/16 00:28:52;;;;;;;18.48;11.98;;;5.60;99.90;;;;;;2060685;28;20031;-68
2022/03/16 00:29:53;;;;;;;13.95;10.85;;;5.60;99.90;;;;;;2061429;28;20185;-68
2022/03/16 00:30:53;;;;;;;13.82;10.93;;;5.60;99.90;;;;;;2063312;28;20023;-68
2022/03/16 00:31:54;;;;;;;16.27;11.00;;;5.50;99.90;;;;;;2054925;28;20062;-68
2022/03/16 00:32:55;;;;;;;17.00;11.75;;;5.50;99.90;;;;;;2063139;28;20022;-68
2022/03/16 00:33:55;;;;;;;14.38;11.45;;;5.50;99.90;;;;;;2061525;28;20482;-68
2022/03/16 00:34:56;;;;;;;14.48;11.90;;;5.50;99.90;;;;;;2063931;28;20118;-68
2022/03/16 00:35:57;;;;;;;17.80;12.32;;;5.50;99.90;;;;;;2059861;28;20037;-68
2022/03/16 00:36:58;;;;;;;14.35;11.77;;;5.50;99.90;;;;;;2061078;28;20027;-68
2022/03/16 00:37:58;;;;;;;15.82;11.60;;;5.50;99.90;;;;;;2066658;28;20046;-68
2022/03/16 00:38:59;;;;;;;14.85;11.02;;;5.50;99.90;;;;;;2064929;28;20065;-68
2022/03/16 00:40:00;;;;;;;18.15;13.45;;;5.50;99.90;;;;;;2063537;28;20078;-68
2022/03/16 00:41:01;;;;;;;16.95;12.10;;;5.50;99.90;;;;;;2061966;28;20030;-68
2022/03/16 00:42:04;;;;;;;13.50;11.10;;;5.40;99.90;;;;;;2061214;28;20035;-68
2022/03/16 00:43:04;;;;;;;13.95;12.00;;;5.40;99.90;;;;;;2060659;28;20414;-68
2022/03/16 00:44:05;;;;;;;15.43;11.82;;;5.40;99.90;;;;;;2061523;28;20181;-68
2022/03/16 00:45:06;;;;;;;17.00;12.55;;;5.40;99.90;;;;;;2062168;28;20026;-68
2022/03/16 00:46:07;;;;;;;15.82;11.43;;;5.40;99.90;;;;;;2067226;28;20030;-68
2022/03/16 00:47:08;;;;;;;18.67;11.82;;;5.40;99.90;;;;;;2064303;28;20022;-68
2022/03/16 00:48:08;;;;;;;13.45;11.00;;;5.30;99.90;;;;;;2059226;28;20118;-68
2022/03/16 00:49:09;;;;;;;14.70;12.00;;;5.30;99.90;;;;;;2064051;28;20089;-68
2022/03/16 00:50:09;;;;;;;14.75;11.40;;;5.30;99.90;;;;;;2064794;28;20373;-68
2022/03/16 00:51:11;;;;;;;17.77;12.50;;;5.30;99.90;;;;;;2064450;28;20367;-68
2022/03/16 00:52:11;;;;;;;18.15;11.52;;;5.30;99.90;;;;;;2060111;28;20021;-68
2022/03/16 00:53:12;;;;;;;15.63;11.63;;;5.30;99.90;;;;;;2062440;28;20034;-68
2022/03/16 00:54:12;;;;;;;16.15;12.82;;;5.30;99.90;;;;;;2067631;28;20049;-68
2022/03/16 00:55:13;;;;;;;16.42;12.27;;;5.30;99.90;;;;;;2061524;28;20033;-68
2022/03/16 00:56:14;;;;;;;18.02;11.85;;;5.30;99.90;;;;;;2064096;28;20061;-68
2022/03/16 00:57:14;;;;;;;17.95;12.57;;;5.20;99.90;;;;;;2063970;28;20031;-68
2022/03/16 00:58:15;;;;;;;20.02;14.02;;;5.20;99.90;;;;;;2061364;28;20130;-68
2022/03/16 00:59:15;;;;;;;16.30;13.30;;;5.20;99.90;;;;;;2064096;28;20023;-68
2022/03/16 01:00:16;;;;;;;14.73;11.68;;;5.20;99.90;;;;;;2064778;28;20029;-68
2022/03/16 01:01:16;;;;;;;19.27;12.40;;;5.20;99.90;;;;;;2064809;28;20428;-68
2022/03/16 01:02:17;;;;;;;14.80;12.25;;;5.20;99.90;;;;;;2068738;28;20104;-68
2022/03/16 01:03:18;;;;;;;17.45;12.07;;;5.20;99.90;;;;;;2066463;28;20057;-68
2022/03/16 01:04:18;;;;;;;16.95;12.38;;;5.20;99.90;;;;;;2066587;28;20446;-68
2022/03/16 01:05:20;;;;;;;14.38;11.10;;;5.20;99.90;;;;;;2064759;28;20019;-68
2022/03/16 01:06:20;;;;;;;17.63;12.20;;;5.20;99.90;;;;;;2064684;28;20030;-68
2022/03/16 01:07:21;;;;;;;17.15;12.57;;;5.20;99.90;;;;;;2064680;28;20158;-68
2022/03/16 01:08:21;;;;;;;15.30;13.15;;;5.20;99.90;;;;;;2061958;28;20034;-68
2022/03/16 01:09:22;;;;;;;18.65;13.55;;;5.20;99.90;;;;;;2068650;28;20025;-68
2022/03/16 01:10:23;;;;;;;16.73;11.70;;;5.10;99.90;;;;;;2065725;28;20473;-68
2022/03/16 01:11:23;;;;;;;16.48;11.05;;;5.20;99.90;;;;;;2064262;28;20117;-68
2022/03/16 01:12:24;;;;;;;15.32;11.98;;;5.10;99.90;;;;;;2067047;28;20482;-68
2022/03/16 01:13:24;;;;;;;15.57;12.63;;;5.10;99.90;;;;;;2064632;28;20061;-68
2022/03/16 01:14:25;;;;;;;14.65;11.27;;;5.10;99.90;;;;;;2063686;28;20022;-68
2022/03/16 01:15:25;;;;;;;15.93;12.45;;;5.10;99.90;;;;;;2063326;28;20089;-68
2022/03/16 01:16:26;;;;;;;13.63;11.35;;;5.10;99.90;;;;;;2065759;28;20038;-68
2022/03/16 01:17:26;;;;;;;17.90;12.18;;;5.10;99.90;;;;;;2068413;28;20036;-68
2022/03/16 01:18:27;;;;;;;19.95;13.10;;;5.10;99.90;;;;;;2064153;28;20030;-68
2022/03/16 01:19:29;;;;;;;13.60;11.10;;;5.10;99.90;;;;;;2059392;28;20032;-68
2022/03/16 01:20:30;;;;;;;14.15;11.48;;;5.10;99.90;;;;;;2067240;28;20034;-68
2022/03/16 01:21:31;;;;;;;13.80;11.40;;;5.00;99.90;;;;;;2064382;28;20045;-68
2022/03/16 01:22:32;;;;;;;15.77;12.20;;;5.00;99.90;;;;;;2065704;28;20022;-68
2022/03/16 01:23:34;;;;;;;12.20;10.35;;;5.00;99.90;;;;;;2062816;28;20026;-68
2022/03/16 01:24:35;;;;;;;15.80;11.63;;;5.00;99.90;;;;;;2067117;28;20030;-68
2022/03/16 01:25:35;;;;;;;17.15;12.57;;;5.00;99.90;;;;;;2062645;28;20038;-68
2022/03/16 01:26:36;;;;;;;16.50;12.30;;;5.00;99.90;;;;;;2064528;28;20046;-68
2022/03/16 01:27:37;;;;;;;16.50;12.07;;;5.00;99.90;;;;;;2067920;28;20032;-68
2022/03/16 01:28:37;;;;;;;15.60;12.25;;;5.00;99.90;;;;;;2066561;28;20085;-68
2022/03/16 01:29:38;;;;;;;14.90;12.20;;;5.00;99.90;;;;;;2065046;28;20030;-68
2022/03/16 01:30:39;;;;;;;13.38;10.55;;;5.00;99.90;;;;;;2064670;28;20029;-68
2022/03/16 01:31:39;;;;;;;16.25;11.73;;;5.00;99.90;;;;;;2062787;28;20033;-68
2022/03/16 01:32:40;;;;;;;13.02;10.45;;;4.90;99.90;;;;;;2065457;28;20030;-68
2022/03/16 01:33:41;;;;;;;11.82;9.82;;;4.90;99.90;;;;;;2065704;28;20077;-68
2022/03/16 01:34:41;;;;;;;15.68;11.05;;;4.90;99.90;;;;;;2066350;28;20030;-68
2022/03/16 01:35:42;;;;;;;14.02;11.57;;;4.90;99.90;;;;;;2064324;28;20027;-68
2022/03/16 01:36:42;;;;;;;16.90;10.90;;;4.90;99.90;;;;;;2064355;28;20145;-68
2022/03/16 01:37:45;;;;;;;14.65;12.00;;;4.90;99.90;;;;;;2063852;28;20019;-68
2022/03/16 01:38:46;;;;;;;11.93;10.68;;;4.90;99.90;;;;;;2061976;28;20042;-68
2022/03/16 01:39:46;;;;;;;13.95;11.43;;;4.90;99.90;;;;;;2064620;28;20022;-68
2022/03/16 01:40:47;;;;;;;15.02;10.52;;;4.90;99.90;;;;;;2065151;28;20037;-68
2022/03/16 01:41:47;;;;;;;14.38;11.00;;;4.90;99.90;;;;;;2067927;28;20076;-68
2022/03/16 01:42:48;;;;;;;14.02;11.82;;;4.90;99.90;;;;;;2067627;28;20490;-68
2022/03/16 01:43:56;;;;;;;16.27;10.90;;;4.80;99.90;;;;;;2066075;28;20544;-68
2022/03/16 01:44:59;;;;;;;12.85;9.88;;;4.80;99.90;;;;;;2061363;28;20624;-68
2022/03/16 01:46:00;;;;;;;14.02;11.48;;;4.80;99.90;;;;;;2065668;28;20037;-68
2022/03/16 01:47:00;;;;;;;12.90;11.05;;;4.80;99.90;;;;;;2064949;28;20022;-68
2022/03/16 01:48:01;;;;;;;12.10;10.80;;;4.80;99.90;;;;;;2066296;28;20035;-68
2022/03/16 01:49:03;;;;;;;13.30;10.77;;;4.80;99.90;;;;;;2068900;28;20501;-68
2022/03/16 01:50:04;;;;;;;13.60;11.07;;;4.80;99.90;;;;;;2067409;28;20467;-68
2022/03/16 01:51:05;;;;;;;13.07;10.50;;;4.80;99.90;;;;;;2067923;28;20470;-68
2022/03/16 01:52:07;;;;;;;11.73;10.02;;;4.80;99.90;;;;;;2064200;28;20344;-68
2022/03/16 01:53:08;;;;;;;12.55;10.85;;;4.80;99.90;;;;;;2064041;28;20106;-68
2022/03/16 01:54:09;;;;;;;14.05;10.85;;;4.80;99.90;;;;;;2065261;28;20455;-68
2022/03/16 01:55:09;;;;;;;12.00;10.73;;;4.80;99.90;;;;;;2064592;28;20023;-68
2022/03/16 01:56:10;;;;;;;15.85;11.30;;;4.80;99.90;;;;;;2067157;28;20023;-68
2022/03/16 01:57:11;;;;;;;15.10;10.80;;;4.80;99.90;;;;;;2068308;28;20081;-68
2022/03/16 01:58:12;;;;;;;13.85;10.32;;;4.80;99.90;;;;;;2063816;28;20031;-68
2022/03/16 01:59:13;;;;;;;13.00;10.85;;;4.70;99.90;;;;;;2065077;28;20029;-68
2022/03/16 02:00:18;;;;;;;15.10;11.13;;;4.70;99.90;;;;;;2066825;28;20045;-68
2022/03/16 02:01:19;;;;;;;12.35;10.50;;;4.70;99.90;;;;;;2064793;28;20441;-68
2022/03/16 02:02:19;;;;;;;15.60;10.68;;;4.70;99.90;;;;;;2064848;28;20361;-68
2022/03/16 02:03:20;;;;;;;14.00;11.52;;;4.70;99.90;;;;;;2065056;28;20089;-68
2022/03/16 02:04:20;;;;;;;14.50;10.75;;;4.70;99.90;;;;;;2067519;28;20540;-68
2022/03/16 02:05:21;;;;;;;13.85;10.90;;;4.70;99.90;;;;;;2062790;28;20030;-68
2022/03/16 02:06:23;;;;;;;11.15;9.48;;;4.70;99.90;;;;;;2063301;28;20088;-68
2022/03/16 02:07:24;;;;;;;13.63;10.05;;;4.70;99.90;;;;;;2064360;28;20038;-67
2022/03/16 02:08:27;;;;;;;10.90;8.82;;;4.70;99.90;;;;;;2065805;28;20053;-68
2022/03/16 02:09:29;;;;;;;12.63;9.73;;;4.70;99.90;;;;;;2062567;28;20038;-68
2022/03/16 02:10:30;;;;;;;13.25;11.50;;;4.70;99.90;;;;;;2060884;28;20576;-68
2022/03/16 02:11:30;;;;;;;11.25;10.00;;;4.70;99.90;;;;;;2061031;28;20026;-68
2022/03/16 02:12:45;;;;;;;14.38;10.57;;;4.70;99.90;;;;;;2066327;28;20021;-68
2022/03/16 02:13:47;;;;;;;15.48;10.70;;;4.70;99.90;;;;;;2065404;28;20026;-68
2022/03/16 02:14:48;;;;;;;13.50;9.88;;;4.60;99.90;;;;;;2066105;28;20026;-67
2022/03/16 02:15:48;;;;;;;13.88;10.45;;;4.60;99.90;;;;;;2065652;28;20104;-67
2022/03/16 02:16:49;;;;;;;13.77;11.00;;;4.60;99.90;;;;;;2064717;28;20053;-68
2022/03/16 02:17:55;;;;;;;13.88;9.77;;;4.60;99.90;;;;;;2062123;28;20797;-68
2022/03/16 02:18:55;;;;;;;14.73;10.55;;;4.60;99.90;;;;;;2061556;28;20025;-68
2022/03/16 02:19:56;;;;;;;16.27;10.38;;;4.60;99.90;;;;;;2064114;28;20555;-68
2022/03/16 02:20:59;;;;;;;13.02;10.38;;;4.60;99.90;;;;;;2067323;28;20524;-68
2022/03/16 02:22:02;;;;;;;11.70;9.60;;;4.60;99.90;;;;;;2066021;28;20456;-68
2022/03/16 02:23:05;;;;;;;10.38;9.23;;;4.60;99.90;;;;;;2067048;28;20030;-68
2022/03/16 02:24:07;;;;;;;13.25;10.60;;;4.50;99.90;;;;;;2062969;28;20019;-68
2022/03/16 02:25:08;;;;;;;13.75;10.70;;;4.50;99.90;;;;;;2065646;28;20113;-68
2022/03/16 02:26:14;;;;;;;13.20;10.07;;;4.50;99.90;;;;;;2061389;28;20411;-68
2022/03/16 02:27:14;;;;;;;13.23;9.65;;;4.50;99.90;;;;;;2061307;28;20116;-68
2022/03/16 02:28:15;;;;;;;16.17;11.32;;;4.50;99.90;;;;;;2064012;28;20034;-68
2022/03/16 02:29:16;;;;;;;12.93;9.70;;;4.50;99.90;;;;;;2061007;28;20565;-68
2022/03/16 02:30:16;;;;;;;11.57;9.57;;;4.50;99.90;;;;;;2067585;28;20030;-68
2022/03/16 02:31:17;;;;;;;14.60;10.27;;;4.50;99.90;;;;;;2063667;28;20102;-68
2022/03/16 02:32:18;;;;;;;14.27;10.77;;;4.50;99.90;;;;;;2065091;28;20149;-68
2022/03/16 02:33:19;;;;;;;11.50;9.55;;;4.50;99.90;;;;;;2062238;28;20415;-68
2022/03/16 02:34:19;;;;;;;15.45;11.07;;;4.50;99.90;;;;;;2061284;28;20057;-68
2022/03/16 02:35:21;;;;;;;12.98;10.00;;;4.50;99.90;;;;;;2064366;28;20061;-68
2022/03/16 02:36:22;;;;;;;13.68;10.35;;;4.50;99.90;;;;;;2064164;28;20524;-68
2022/03/16 02:37:22;;;;;;;15.15;12.43;;;4.50;99.90;;;;;;2067774;28;20490;-67
2022/03/16 02:38:23;;;;;;;14.07;11.18;;;4.50;99.90;;;;;;2067215;28;20018;-68
2022/03/16 02:39:23;;;;;;;16.23;12.98;;;4.50;99.90;;;;;;2063427;28;20058;-68
2022/03/16 02:40:24;;;;;;;17.70;13.52;;;4.50;99.90;;;;;;2063939;28;20041;-68
2022/03/16 02:41:25;;;;;;;20.52;13.90;;;4.50;99.90;;;;;;2064459;28;20022;-68
2022/03/16 02:42:25;;;;;;;17.45;12.60;;;4.40;99.90;;;;;;2061501;28;20030;-68
2022/03/16 02:43:27;;;;;;;18.10;14.27;;;4.40;99.90;;;;;;2065136;28;20034;-68
2022/03/16 02:44:28;;;;;;;20.75;14.88;;;4.50;99.90;;;;;;2065414;28;20030;-69
2022/03/16 02:45:28;;;;;;;20.90;14.38;;;4.40;99.90;;;;;;2064604;28;20029;-68
2022/03/16 02:46:29;;;;;;;20.30;14.90;;;4.40;99.90;;;;;;2060514;28;20026;-69
2022/03/16 02:47:30;;;;;;;22.38;15.70;;;4.40;99.90;;;;;;2061959;28;20037;-68
2022/03/16 02:48:30;;;;;;;22.00;14.88;;;4.40;99.90;;;;;;2064373;28;20034;-68
2022/03/16 02:49:31;;;;;;;18.17;13.85;;;4.40;99.90;;;;;;2062154;28;20536;-68
2022/03/16 02:50:32;;;;;;;24.33;13.93;;;4.40;99.90;;;;;;2062685;28;20110;-68
2022/03/16 02:51:32;;;;;;;16.98;12.38;;;4.40;99.90;;;;;;2068127;28;20017;-68
2022/03/16 02:52:33;;;;;;;16.13;12.60;;;4.40;99.90;;;;;;2065620;28;20382;-68
2022/03/16 02:53:33;;;;;;;22.48;14.38;;;4.40;99.90;;;;;;2069571;28;20104;-68
2022/03/16 02:54:34;;;;;;;18.77;14.18;;;4.40;99.90;;;;;;2067102;28;20038;-68
2022/03/16 02:55:35;;;;;;;18.90;13.50;;;4.40;99.90;;;;;;2063882;28;20018;-68
2022/03/16 02:56:35;;;;;;;22.27;14.90;;;4.40;99.90;;;;;;2062525;28;20482;-68
2022/03/16 02:57:36;;;;;;;19.33;14.43;;;4.40;99.90;;;;;;2063155;28;20040;-68
2022/03/16 02:58:36;;;;;;;21.17;14.48;;;4.40;99.90;;;;;;2062236;28;20018;-68
2022/03/16 02:59:37;;;;;;;19.58;15.32;;;4.40;99.90;;;;;;2064540;28;20486;-68
2022/03/16 03:00:38;;;;;;;19.77;15.27;;;4.40;99.90;;;;;;2063319;28;20027;-68
2022/03/16 03:01:38;;;;;;;21.58;15.57;;;4.40;99.90;;;;;;2064815;28;20026;-68
2022/03/16 03:02:41;;;;;;;21.00;15.77;;;4.40;99.90;;;;;;2065799;28;20032;-68
2022/03/16 03:03:42;;;;;;;22.40;14.60;;;4.40;99.90;;;;;;2065153;28;20699;-68
2022/03/16 03:04:42;;;;;;;19.33;14.38;;;4.40;99.90;;;;;;2065898;28;20109;-68
2022/03/16 03:05:43;;;;;;;18.80;14.88;;;4.40;99.90;;;;;;2064101;28;20034;-68
2022/03/16 03:06:43;;;;;;;20.05;15.23;;;4.40;99.90;;;;;;2064637;28;20057;-68
2022/03/16 03:07:44;;;;;;;20.95;14.95;;;4.40;99.90;;;;;;2068146;28;20417;-68
2022/03/16 03:08:44;;;;;;;21.02;15.55;;;4.40;99.90;;;;;;2066573;28;20033;-67
2022/03/16 03:09:45;;;;;;;23.05;16.35;;;4.40;99.90;;;;;;2065424;28;20117;-68
2022/03/16 03:10:45;;;;;;;19.85;15.55;;;4.40;99.90;;;;;;2065331;28;20030;-68
2022/03/16 03:11:46;;;;;;;22.67;15.00;;;4.40;99.90;;;;;;2065512;28;20058;-68
2022/03/16 03:12:47;;;;;;;20.25;14.75;;;4.40;99.90;;;;;;2063413;28;20529;-68
2022/03/16 03:13:47;;;;;;;17.63;13.95;;;4.40;99.90;;;;;;2063964;28;20069;-68
2022/03/16 03:14:48;;;;;;;17.80;13.95;;;4.40;99.90;;;;;;2062086;28;20154;-68
2022/03/16 03:15:48;;;;;;;19.17;14.15;;;4.40;99.90;;;;;;2067239;28;20124;-68
2022/03/16 03:16:49;;;;;;;21.63;14.85;;;4.40;99.90;;;;;;2067379;28;20081;-68
2022/03/16 03:17:49;;;;;;;18.58;13.75;;;4.40;99.90;;;;;;2065361;28;20035;-69
2022/03/16 03:18:50;;;;;;;20.05;14.77;;;4.40;99.90;;;;;;2062993;28;20089;-69
2022/03/16 03:19:50;;;;;;;19.58;13.52;;;4.40;99.90;;;;;;2065844;28;20494;-70
2022/03/16 03:20:51;;;;;;;17.48;13.50;;;4.40;99.90;;;;;;2060916;28;20034;-69
2022/03/16 03:21:51;;;;;;;18.13;12.95;;;4.40;99.90;;;;;;2065099;28;20030;-69
2022/03/16 03:22:52;;;;;;;16.25;12.68;;;4.40;99.90;;;;;;2061069;28;20070;-69
2022/03/16 03:23:52;;;;;;;17.48;12.95;;;4.40;99.90;;;;;;2067440;28;20052;-69
2022/03/16 03:24:54;;;;;;;17.88;12.95;;;4.40;99.90;;;;;;2067289;28;20482;-70
2022/03/16 03:25:54;;;;;;;12.57;11.05;;;4.40;99.90;;;;;;2065955;28;20114;-70
2022/03/16 03:26:55;;;;;;;16.00;11.30;;;4.40;99.90;;;;;;2061395;28;20030;-69
2022/03/16 03:27:55;;;;;;;18.92;13.27;;;4.40;99.90;;;;;;2064958;28;20137;-68
2022/03/16 03:28:56;;;;;;;17.33;13.73;;;4.40;99.90;;;;;;2062217;28;20379;-68
2022/03/16 03:29:57;;;;;;;13.05;11.20;;;4.40;99.90;;;;;;2064397;28;20027;-68
2022/03/16 03:30:57;;;;;;;17.60;12.32;;;4.40;99.90;;;;;;2060015;28;20059;-69
2022/03/16 03:31:58;;;;;;;18.77;13.15;;;4.40;99.90;;;;;;2063067;28;20050;-69
2022/03/16 03:32:58;;;;;;;15.32;10.75;;;4.40;99.90;;;;;;2063993;28;20033;-69
2022/03/16 03:33:59;;;;;;;13.18;11.05;;;4.40;99.90;;;;;;2063800;28;20107;-69
2022/03/16 03:35:00;;;;;;;15.23;11.93;;;4.40;99.90;;;;;;2066345;28;20504;-69
2022/03/16 03:36:00;;;;;;;13.98;11.98;;;4.40;99.90;;;;;;2064935;28;20026;-69
2022/03/16 03:37:01;;;;;;;18.75;14.48;;;4.40;99.90;;;;;;2064108;28;20026;-69
2022/03/16 03:38:01;;;;;;;16.83;12.77;;;4.40;99.90;;;;;;2064491;28;20038;-69
2022/03/16 03:39:03;;;;;;;20.08;14.02;;;4.40;99.90;;;;;;2060456;28;20027;-69
2022/03/16 03:40:04;;;;;;;16.52;13.50;;;4.30;99.90;;;;;;2064340;28;20082;-69
2022/03/16 03:41:05;;;;;;;16.48;13.45;;;4.40;99.90;;;;;;2066635;28;20026;-69
2022/03/16 03:42:06;;;;;;;16.45;11.98;;;4.30;99.90;;;;;;2070616;28;20032;-69
2022/03/16 03:43:07;;;;;;;14.68;11.93;;;4.30;99.90;;;;;;2063433;28;20117;-69
2022/03/16 03:44:07;;;;;;;17.50;12.50;;;4.30;99.90;;;;;;2063012;28;20022;-69
2022/03/16 03:45:08;;;;;;;15.23;12.52;;;4.30;99.90;;;;;;2061617;28;20257;-69
2022/03/16 03:46:08;;;;;;;16.58;12.10;;;4.30;99.90;;;;;;2063588;28;20370;-69
2022/03/16 03:47:10;;;;;;;17.92;12.60;;;4.30;99.90;;;;;;2063913;28;20084;-69
2022/03/16 03:48:11;;;;;;;16.23;13.43;;;4.30;99.90;;;;;;2065695;28;20037;-69
2022/03/16 03:49:11;;;;;;;20.58;14.10;;;4.30;99.90;;;;;;2066761;28;20033;-70
2022/03/16 03:50:12;;;;;;;16.95;12.55;;;4.30;99.90;;;;;;2063923;28;20054;-69
2022/03/16 03:51:12;;;;;;;15.45;12.98;;;4.30;99.90;;;;;;2065742;28;20029;-69
2022/03/16 03:52:13;;;;;;;17.60;13.52;;;4.30;99.90;;;;;;2062484;28;20022;-69
2022/03/16 03:53:15;;;;;;;16.58;13.40;;;4.30;99.90;;;;;;2064465;28;20380;-69
2022/03/16 03:54:16;;;;;;;19.75;13.40;;;4.30;99.90;;;;;;2066113;28;20049;-69
2022/03/16 03:55:16;;;;;;;16.38;12.25;;;4.30;99.90;;;;;;2066639;28;20374;-69
2022/03/16 03:56:17;;;;;;;15.38;10.98;;;4.30;99.90;;;;;;2066284;28;20021;-69
2022/03/16 03:57:18;;;;;;;19.67;13.32;;;4.30;99.90;;;;;;2063998;28;20030;-69
2022/03/16 03:58:18;;;;;;;14.00;11.45;;;4.20;99.90;;;;;;2062351;28;20026;-69
2022/03/16 03:59:20;;;;;;;16.95;12.93;;;4.30;99.90;;;;;;2063987;28;20042;-69
2022/03/16 04:00:20;;;;;;;16.73;12.55;;;4.20;99.90;;;;;;2065057;28;20019;-69
2022/03/16 04:01:21;;;;;;;15.55;11.80;;;4.20;99.90;;;;;;2061462;28;20094;-69
2022/03/16 04:02:21;;;;;;;19.42;11.77;;;4.20;99.90;;;;;;2065529;28;20025;-69
2022/03/16 04:03:22;;;;;;;16.75;11.95;;;4.20;99.90;;;;;;2067113;28;20084;-69
2022/03/16 04:04:22;;;;;;;16.63;11.73;;;4.20;99.90;;;;;;2067069;28;20030;-69
2022/03/16 04:05:23;;;;;;;15.98;12.63;;;4.20;99.90;;;;;;2064117;28;20026;-69
2022/03/16 04:06:24;;;;;;;14.30;11.77;;;4.20;99.90;;;;;;2064836;28;20034;-69
2022/03/16 04:07:24;;;;;;;11.98;10.23;;;4.20;99.90;;;;;;2065404;28;20030;-69
2022/03/16 04:08:24;;;;;;;12.30;10.73;;;4.20;99.90;;;;;;2062196;28;20081;-69
2022/03/16 04:09:25;;;;;;;21.00;13.02;;;4.20;99.90;;;;;;2064320;28;20032;-69
2022/03/16 04:10:25;;;;;;;14.77;11.25;;;4.20;99.90;;;;;;2065373;28;20030;-69
2022/03/16 04:11:26;;;;;;;17.55;11.23;;;4.20;99.90;;;;;;2066554;28;20488;-69
2022/03/16 04:12:27;;;;;;;13.32;10.32;;;4.20;99.90;;;;;;2067035;28;20018;-69
2022/03/16 04:13:27;;;;;;;14.88;12.07;;;4.20;99.90;;;;;;2063755;28;20915;-69
2022/03/16 04:14:28;;;;;;;13.77;10.52;;;4.20;99.90;;;;;;2064062;28;20022;-69
2022/03/16 04:15:29;;;;;;;13.27;11.63;;;4.20;99.90;;;;;;2064111;28;20128;-69
2022/03/16 04:16:29;;;;;;;16.70;11.43;;;4.20;99.90;;;;;;2064002;28;20096;-69
2022/03/16 04:17:30;;;;;;;15.82;11.60;;;4.20;99.90;;;;;;2063447;28;20134;-69
2022/03/16 04:18:30;;;;;;;13.70;10.82;;;4.20;99.90;;;;;;2065365;28;20025;-69
2022/03/16 04:19:31;;;;;;;15.45;12.10;;;4.20;99.90;;;;;;2065472;28;20033;-69
2022/03/16 04:20:31;;;;;;;16.90;13.15;;;4.20;99.90;;;;;;2066804;28;20050;-69
2022/03/16 04:21:33;;;;;;;16.38;10.88;;;4.10;99.90;;;;;;2064286;28;20470;-69
2022/03/16 04:22:34;;;;;;;15.77;10.60;;;4.10;99.90;;;;;;2063376;28;20037;-69
2022/03/16 04:23:34;;;;;;;14.00;11.30;;;4.10;99.90;;;;;;2063787;28;20029;-69
2022/03/16 04:24:35;;;;;;;14.32;11.63;;;4.10;99.90;;;;;;2062583;28;20397;-69
2022/03/16 04:25:35;;;;;;;15.65;11.27;;;4.10;99.90;;;;;;2062220;28;20077;-69
2022/03/16 04:26:36;;;;;;;13.80;11.43;;;4.10;99.90;;;;;;2062773;28;20037;-69
2022/03/16 04:27:37;;;;;;;15.32;11.43;;;4.10;99.90;;;;;;2067145;28;20069;-69
2022/03/16 04:28:37;;;;;;;12.05;10.52;;;4.10;99.90;;;;;;2066553;28;20030;-69
2022/03/16 04:29:38;;;;;;;12.68;10.88;;;4.00;99.90;;;;;;2064646;28;20049;-69
2022/03/16 04:30:38;;;;;;;13.52;11.70;;;4.00;99.90;;;;;;2064876;28;20378;-69
2022/03/16 04:31:39;;;;;;;14.55;11.48;;;4.00;99.90;;;;;;2061594;28;20034;-69
2022/03/16 04:32:39;;;;;;;12.75;10.95;;;4.00;99.90;;;;;;2061938;28;20033;-69
2022/03/16 04:33:40;;;;;;;13.32;10.13;;;4.00;99.90;;;;;;2061083;28;20669;-70
2022/03/16 04:34:41;;;;;;;12.25;10.43;;;4.00;99.90;;;;;;2064331;28;20356;-69
2022/03/16 04:35:41;;;;;;;15.13;10.63;;;4.00;99.90;;;;;;2065257;28;20027;-69
2022/03/16 04:36:42;;;;;;;13.02;10.77;;;4.00;99.90;;;;;;2066499;28;20077;-69
2022/03/16 04:37:43;;;;;;;14.25;10.88;;;4.00;99.90;;;;;;2065825;28;20053;-69
2022/03/16 04:38:44;;;;;;;14.32;11.35;;;4.00;99.90;;;;;;2064014;28;20026;-69
2022/03/16 04:39:45;;;;;;;12.90;10.55;;;4.00;99.90;;;;;;2061395;28;20032;-69
2022/03/16 04:40:46;;;;;;;14.30;10.93;;;4.00;99.90;;;;;;2063436;28;20366;-69
2022/03/16 04:41:47;;;;;;;14.30;12.07;;;4.00;99.90;;;;;;2060618;28;20118;-69
2022/03/16 04:42:47;;;;;;;17.73;12.90;;;3.90;99.90;;;;;;2065669;28;20034;-70
2022/03/16 04:43:48;;;;;;;17.55;12.93;;;4.00;99.90;;;;;;2066182;28;20031;-70
2022/03/16 04:44:49;;;;;;;18.27;13.55;;;4.00;99.90;;;;;;2065046;28;20106;-69
2022/03/16 04:45:49;;;;;;;17.73;13.73;;;4.00;99.90;;;;;;2062478;28;20042;-69
2022/03/16 04:46:50;;;;;;;17.08;14.05;;;4.10;99.90;;;;;;2059079;28;20054;-69
2022/03/16 04:47:51;;;;;;;18.88;14.10;;;4.10;99.90;;;;;;2059085;28;20034;-69
2022/03/16 04:48:51;;;;;;;17.83;14.20;;;4.10;99.90;;;;;;2059599;28;20393;-69
2022/03/16 04:49:52;;;;;;;17.40;13.50;;;4.20;99.90;;;;;;2060094;28;20109;-69
2022/03/16 04:50:52;;;;;;;16.95;13.43;;;4.20;99.90;;;;;;2063287;28;20053;-69
2022/03/16 04:51:53;;;;;;;18.38;14.40;;;4.20;99.90;;;;;;2062988;28;20019;-69
2022/03/16 04:52:53;;;;;;;17.20;14.35;;;4.20;99.90;;;;;;2064778;28;20026;-69
2022/03/16 04:53:54;;;;;;;19.02;14.43;;;4.20;99.90;;;;;;2065741;28;20486;-69
2022/03/16 04:54:55;;;;;;;21.40;14.57;;;4.30;99.90;;;;;;2062484;28;20022;-69
2022/03/16 04:55:55;;;;;;;17.88;14.18;;;4.30;99.90;;;;;;2063319;28;20062;-69
2022/03/16 04:56:56;;;;;;;18.55;14.32;;;4.30;99.90;;;;;;2059982;28;20530;-69
2022/03/16 04:57:57;;;;;;;19.48;14.48;;;4.30;99.90;;;;;;2060133;28;20669;-69
2022/03/16 04:58:57;;;;;;;15.75;14.05;;;4.30;99.90;;;;;;2064118;28;20104;-69
2022/03/16 04:59:58;;;;;;;17.88;14.55;;;4.40;99.90;;;;;;2064367;28;20105;-69
2022/03/16 05:00:58;;;;;;;18.88;14.18;;;4.40;99.90;;;;;;2059231;28;20497;-69
2022/03/16 05:01:59;;;;;;;18.05;14.23;;;4.40;99.90;;;;;;2064821;28;20143;-69
2022/03/16 05:02:59;;;;;;;15.63;14.02;;;4.40;99.90;;;;;;2062683;28;20077;-69
2022/03/16 05:04:00;;;;;;;19.25;14.48;;;4.40;99.90;;;;;;2064514;28;20640;-69
2022/03/16 05:05:01;;;;;;;16.65;14.77;;;4.40;99.90;;;;;;2063912;28;20461;-69
2022/03/16 05:06:01;;;;;;;18.42;14.18;;;4.40;99.90;;;;;;2064420;28;20628;-69
2022/03/16 05:07:02;;;;;;;18.35;14.30;;;4.50;99.90;;;;;;2067212;28;20089;-69
2022/03/16 05:08:03;;;;;;;16.52;13.50;;;4.50;99.90;;;;;;2065499;28;20035;-69
2022/03/16 05:09:03;;;;;;;19.10;14.02;;;4.50;99.90;;;;;;2066078;28;20058;-69
2022/03/16 05:10:06;;;;;;;21.25;13.98;;;4.50;99.90;;;;;;2063803;28;20554;-69
2022/03/16 05:11:07;;;;;;;18.20;13.77;;;4.50;99.90;;;;;;2061415;28;20030;-69
2022/03/16 05:12:08;;;;;;;17.42;14.13;;;4.50;99.90;;;;;;2064372;28;20023;-69
2022/03/16 05:13:08;;;;;;;16.58;13.82;;;4.50;99.90;;;;;;2062092;28;20026;-69